Time;durP1;ratioP1;P1;durP2;ratioP2;P2;SDS_P1;SDS_P2;PMS_P1;PMS_P2;Temp;Humidity;BMP_temperature;BMP_pressure;BME280_temperature;BME280_humidity;BME280_pressure;Samples;Min_cycle;Max_cycle;Signal;HPM_P1;HPM_P2
2023/12/20 00:01:00;;;;;;;8.93;1.97;;;;;;;;;;5035157;28;20280;-57
2023/12/20 00:03:32;;;;;;;10.70;3.00;;;;;;;;;;5012746;28;20179;-58
2023/12/20 00:06:00;;;;;;;13.13;2.63;;;;;;;;;;5024278;28;20609;-56
2023/12/20 00:08:28;;;;;;;10.37;1.97;;;;;;;;;;5033794;28;20178;-55
2023/12/20 00:10:57;;;;;;;7.30;1.77;;;;;;;;;;5029722;28;20201;-54
2023/12/20 00:13:25;;;;;;;13.00;2.47;;;;;;;;;;5029326;28;20180;-58
2023/12/20 00:15:53;;;;;;;12.17;1.73;;;;;;;;;;5031034;28;20176;-57
2023/12/20 00:18:20;;;;;;;11.83;2.63;;;;;;;;;;5029130;28;20174;-57
2023/12/20 00:20:46;;;;;;;13.83;3.23;;;;;;;;;;5030698;28;20179;-56
2023/12/20 00:23:12;;;;;;;13.80;2.37;;;;;;;;;;5030959;28;20177;-58
2023/12/20 00:25:38;;;;;;;8.23;1.93;;;;;;;;;;5031069;28;20184;-58
2023/12/20 00:28:03;;;;;;;7.77;1.60;;;;;;;;;;5031677;28;20269;-58
2023/12/20 00:30:30;;;;;;;5.23;1.80;;;;;;;;;;5031647;28;20285;-58
2023/12/20 00:32:56;;;;;;;11.47;2.63;;;;;;;;;;5031707;28;20184;-57
2023/12/20 00:35:22;;;;;;;17.67;3.53;;;;;;;;;;5038313;28;20766;-57
2023/12/20 00:37:48;;;;;;;12.60;2.83;;;;;;;;;;5076063;28;20204;-58
2023/12/20 00:40:14;;;;;;;6.00;1.67;;;;;;;;;;5057929;28;20165;-58
2023/12/20 00:42:40;;;;;;;10.93;1.77;;;;;;;;;;5059026;28;20183;-58
2023/12/20 00:45:07;;;;;;;11.73;2.30;;;;;;;;;;5058481;28;20172;-58
2023/12/20 00:47:32;;;;;;;8.57;2.07;;;;;;;;;;5057219;28;20495;-58
2023/12/20 00:49:59;;;;;;;15.17;2.50;;;;;;;;;;5056910;28;20279;-53
2023/12/20 00:52:25;;;;;;;7.63;2.27;;;;;;;;;;5074591;28;20375;-58
2023/12/20 00:54:51;;;;;;;9.57;2.03;;;;;;;;;;5057583;28;20615;-56
2023/12/20 00:57:17;;;;;;;11.80;4.00;;;;;;;;;;5057568;28;20596;-57
2023/12/20 00:59:43;;;;;;;8.97;2.33;;;;;;;;;;5057624;28;20216;-58
2023/12/20 01:02:09;;;;;;;7.80;2.27;;;;;;;;;;5058453;28;20267;-58
2023/12/20 01:04:36;;;;;;;14.10;2.57;;;;;;;;;;5058377;28;20173;-55
2023/12/20 01:07:02;;;;;;;12.50;2.57;;;;;;;;;;5058706;28;20494;-57
2023/12/20 01:09:28;;;;;;;8.40;1.97;;;;;;;;;;5058149;28;20552;-58
2023/12/20 01:11:53;;;;;;;11.30;2.27;;;;;;;;;;5055630;28;20472;-57
2023/12/20 01:14:19;;;;;;;11.10;2.43;;;;;;;;;;5055693;28;20540;-57
2023/12/20 01:16:45;;;;;;;7.93;1.97;;;;;;;;;;5056177;28;20231;-57
2023/12/20 01:19:12;;;;;;;20.30;2.43;;;;;;;;;;5056164;28;20276;-56
2023/12/20 01:21:38;;;;;;;9.90;2.47;;;;;;;;;;5056341;28;20280;-57
2023/12/20 01:24:04;;;;;;;20.23;3.30;;;;;;;;;;5074470;28;20541;-53
2023/12/20 01:26:30;;;;;;;18.23;3.53;;;;;;;;;;5057605;28;20591;-56
2023/12/20 01:28:56;;;;;;;9.97;1.90;;;;;;;;;;5057995;28;20224;-56
2023/12/20 01:31:22;;;;;;;11.57;3.10;;;;;;;;;;5056611;28;20177;-57
2023/12/20 01:33:48;;;;;;;10.00;1.93;;;;;;;;;;5073316;28;20169;-56
2023/12/20 01:36:14;;;;;;;11.53;2.60;;;;;;;;;;5041341;28;20253;-55
2023/12/20 01:38:40;;;;;;;8.43;1.93;;;;;;;;;;5032651;28;20181;-57
2023/12/20 01:41:06;;;;;;;13.63;2.80;;;;;;;;;;5032894;28;20418;-57
2023/12/20 01:43:32;;;;;;;16.50;2.03;;;;;;;;;;5032404;28;20178;-56
2023/12/20 01:46:00;;;;;;;12.17;2.97;;;;;;;;;;5031701;28;20558;-55
2023/12/20 01:48:26;;;;;;;9.97;2.17;;;;;;;;;;5032922;28;20171;-53
2023/12/20 01:50:52;;;;;;;6.43;1.63;;;;;;;;;;5033720;28;20316;-57
2023/12/20 01:53:20;;;;;;;12.70;2.83;;;;;;;;;;5034671;28;20535;-57
2023/12/20 01:55:46;;;;;;;11.97;2.03;;;;;;;;;;5033253;28;20251;-57
2023/12/20 01:58:12;;;;;;;15.77;3.03;;;;;;;;;;5033944;28;20276;-53
2023/12/20 02:00:38;;;;;;;10.53;2.07;;;;;;;;;;5034183;28;20221;-54
2023/12/20 02:03:04;;;;;;;7.97;2.53;;;;;;;;;;5033541;28;20244;-57
2023/12/20 02:05:31;;;;;;;9.47;2.27;;;;;;;;;;5034861;28;20439;-54
2023/12/20 02:07:57;;;;;;;10.83;2.60;;;;;;;;;;5033735;28;20441;-56
2023/12/20 02:10:24;;;;;;;12.40;2.40;;;;;;;;;;5032654;28;20193;-56
2023/12/20 02:12:50;;;;;;;9.87;2.30;;;;;;;;;;5033321;28;20495;-54
2023/12/20 02:15:16;;;;;;;13.83;2.40;;;;;;;;;;5032123;28;20182;-56
2023/12/20 02:17:42;;;;;;;12.13;2.03;;;;;;;;;;5032166;28;20210;-55
2023/12/20 02:20:09;;;;;;;12.57;2.13;;;;;;;;;;5031082;28;20170;-57
2023/12/20 02:22:35;;;;;;;15.80;3.23;;;;;;;;;;5031318;28;20174;-56
2023/12/20 02:25:01;;;;;;;4.93;1.70;;;;;;;;;;5030562;28;20563;-55
2023/12/20 02:27:28;;;;;;;10.00;2.10;;;;;;;;;;5032401;28;20423;-54
2023/12/20 02:29:54;;;;;;;8.43;1.70;;;;;;;;;;5032306;28;20190;-57
2023/12/20 02:32:20;;;;;;;11.73;2.87;;;;;;;;;;5032806;28;20170;-53
2023/12/20 02:34:49;;;;;;;15.03;3.10;;;;;;;;;;5032881;28;20178;-57
2023/12/20 02:37:15;;;;;;;8.57;2.30;;;;;;;;;;5069624;28;20316;-54
2023/12/20 02:39:41;;;;;;;10.87;2.30;;;;;;;;;;5056684;28;20654;-57
2023/12/20 02:42:08;;;;;;;14.37;2.97;;;;;;;;;;5072267;28;20667;-56
2023/12/20 02:44:34;;;;;;;9.80;2.97;;;;;;;;;;5055181;28;20176;-54
2023/12/20 02:47:00;;;;;;;12.27;2.50;;;;;;;;;;5056196;28;20172;-54
2023/12/20 02:49:26;;;;;;;9.10;1.80;;;;;;;;;;5055729;28;20536;-57
2023/12/20 02:51:52;;;;;;;14.90;2.57;;;;;;;;;;5055623;28;20172;-53
2023/12/20 02:54:18;;;;;;;9.70;2.10;;;;;;;;;;5054782;28;20168;-56
2023/12/20 02:56:44;;;;;;;12.03;3.07;;;;;;;;;;5054264;28;20209;-57
2023/12/20 02:59:10;;;;;;;8.67;2.47;;;;;;;;;;5054658;28;20177;-57
2023/12/20 03:01:36;;;;;;;18.27;2.50;;;;;;;;;;5054369;28;20172;-54
2023/12/20 03:04:02;;;;;;;13.40;2.00;;;;;;;;;;5053720;28;20367;-57
2023/12/20 03:06:28;;;;;;;11.30;3.07;;;;;;;;;;5072085;28;20183;-57
2023/12/20 03:08:54;;;;;;;8.83;2.00;;;;;;;;;;5055078;28;20169;-56
2023/12/20 03:11:20;;;;;;;9.93;2.20;;;;;;;;;;5054289;28;20196;-57
2023/12/20 03:13:46;;;;;;;12.10;2.37;;;;;;;;;;5054693;28;20172;-53
2023/12/20 03:16:12;;;;;;;8.17;1.80;;;;;;;;;;5054486;28;20291;-52
2023/12/20 03:18:38;;;;;;;8.17;1.80;;;;;;;;;;5072075;28;20320;-56
2023/12/20 03:21:05;;;;;;;12.10;2.90;;;;;;;;;;5054599;28;20179;-56
2023/12/20 03:23:32;;;;;;;7.57;1.97;;;;;;;;;;5054276;28;20176;-57
2023/12/20 03:25:58;;;;;;;4.93;1.43;;;;;;;;;;5054672;28;20189;-57
2023/12/20 03:28:24;;;;;;;12.90;2.20;;;;;;;;;;5071441;28;20184;-54
2023/12/20 03:30:50;;;;;;;9.67;1.80;;;;;;;;;;5054726;28;20173;-56
2023/12/20 03:33:16;;;;;;;5.93;1.87;;;;;;;;;;5071916;28;20568;-55
2023/12/20 03:35:42;;;;;;;17.27;2.57;;;;;;;;;;5046302;28;20222;-55
2023/12/20 03:38:08;;;;;;;14.77;3.07;;;;;;;;;;5031203;28;20206;-54
2023/12/20 03:40:34;;;;;;;10.87;2.40;;;;;;;;;;5030506;28;20550;-52
2023/12/20 03:43:00;;;;;;;6.13;2.13;;;;;;;;;;5029997;28;20232;-56
2023/12/20 03:45:26;;;;;;;13.53;2.90;;;;;;;;;;5029396;28;20174;-52
2023/12/20 03:47:55;;;;;;;11.53;2.03;;;;;;;;;;5029833;28;20182;-54
2023/12/20 03:50:21;;;;;;;8.70;2.53;;;;;;;;;;5031483;28;20412;-55
2023/12/20 03:52:47;;;;;;;7.83;2.13;;;;;;;;;;5030030;28;20173;-54
2023/12/20 03:55:13;;;;;;;8.03;2.00;;;;;;;;;;5030641;28;20170;-54
2023/12/20 03:57:39;;;;;;;10.37;2.13;;;;;;;;;;5032374;28;20235;-57
2023/12/20 04:00:10;;;;;;;9.00;2.07;;;;;;;;;;5031267;28;20476;-57
2023/12/20 04:02:36;;;;;;;16.77;2.33;;;;;;;;;;5031251;28;20613;-56
2023/12/20 04:05:02;;;;;;;5.27;2.03;;;;;;;;;;5029446;28;20269;-51
2023/12/20 04:07:28;;;;;;;8.20;2.20;;;;;;;;;;5029097;28;20375;-51
2023/12/20 04:09:54;;;;;;;11.00;1.97;;;;;;;;;;5031411;28;20216;-53
2023/12/20 04:12:20;;;;;;;11.47;2.10;;;;;;;;;;5033949;28;20184;-56
2023/12/20 04:14:45;;;;;;;17.57;2.73;;;;;;;;;;5032165;28;20272;-57
2023/12/20 04:17:11;;;;;;;16.03;2.37;;;;;;;;;;5032564;28;20205;-55
2023/12/20 04:19:37;;;;;;;9.07;2.60;;;;;;;;;;5038029;28;20170;-54
2023/12/20 04:22:04;;;;;;;7.10;1.83;;;;;;;;;;5033224;28;20544;-53
2023/12/20 04:24:30;;;;;;;17.37;2.30;;;;;;;;;;5033089;28;20307;-54
2023/12/20 04:26:55;;;;;;;6.20;1.63;;;;;;;;;;5033326;28;20277;-57
2023/12/20 04:29:21;;;;;;;10.87;2.07;;;;;;;;;;5035479;28;20221;-54
2023/12/20 04:31:47;;;;;;;12.00;1.90;;;;;;;;;;5033238;28;20231;-56
2023/12/20 04:34:13;;;;;;;8.03;2.50;;;;;;;;;;5035137;28;20205;-52
2023/12/20 04:36:39;;;;;;;7.40;1.80;;;;;;;;;;5033635;28;20586;-55
2023/12/20 04:39:06;;;;;;;10.03;1.83;;;;;;;;;;5033087;28;20290;-57
2023/12/20 04:41:32;;;;;;;16.13;2.53;;;;;;;;;;5017065;28;20188;-57
2023/12/20 04:43:58;;;;;;;9.30;2.00;;;;;;;;;;5033197;28;20170;-56
2023/12/20 04:46:24;;;;;;;13.47;2.57;;;;;;;;;;5034822;28;20235;-55
2023/12/20 04:48:50;;;;;;;10.97;2.60;;;;;;;;;;5032691;28;20379;-54
2023/12/20 04:51:16;;;;;;;9.33;2.60;;;;;;;;;;5033369;28;20181;-57
2023/12/20 04:53:42;;;;;;;12.20;2.10;;;;;;;;;;5033743;28;20561;-55
2023/12/20 04:56:08;;;;;;;10.20;2.63;;;;;;;;;;5034164;28;20178;-57
2023/12/20 04:58:34;;;;;;;9.77;2.17;;;;;;;;;;5031231;28;20636;-57
2023/12/20 05:01:00;;;;;;;13.90;2.47;;;;;;;;;;5033334;28;20301;-57
2023/12/20 05:03:26;;;;;;;4.10;1.70;;;;;;;;;;5032966;28;20181;-55
2023/12/20 05:05:52;;;;;;;7.90;2.20;;;;;;;;;;5033574;28;20388;-50
2023/12/20 05:08:18;;;;;;;7.80;2.33;;;;;;;;;;5033465;28;20496;-56
2023/12/20 05:10:44;;;;;;;14.07;3.27;;;;;;;;;;5033594;28;20178;-57
2023/12/20 05:13:10;;;;;;;13.20;3.30;;;;;;;;;;5033382;28;20281;-57
2023/12/20 05:15:36;;;;;;;14.47;2.47;;;;;;;;;;5036683;28;20558;-55
2023/12/20 05:18:02;;;;;;;9.23;2.57;;;;;;;;;;5037733;28;20271;-57
2023/12/20 05:20:28;;;;;;;15.93;2.70;;;;;;;;;;5035830;28;20174;-57
2023/12/20 05:22:54;;;;;;;7.97;2.13;;;;;;;;;;5037216;28;20181;-55
2023/12/20 05:25:20;;;;;;;11.83;2.30;;;;;;;;;;5037070;28;20201;-55
2023/12/20 05:27:46;;;;;;;15.30;3.43;;;;;;;;;;5036528;28;20542;-57
2023/12/20 05:30:12;;;;;;;8.93;3.83;;;;;;;;;;5037260;28;20241;-53
2023/12/20 05:32:38;;;;;;;10.73;2.43;;;;;;;;;;5036707;28;20174;-57
2023/12/20 05:35:04;;;;;;;16.17;2.13;;;;;;;;;;5036690;28;20174;-55
2023/12/20 05:37:30;;;;;;;11.50;2.87;;;;;;;;;;5036367;28;20743;-55
2023/12/20 05:39:56;;;;;;;15.83;3.33;;;;;;;;;;5035174;28;20170;-55
2023/12/20 05:42:22;;;;;;;12.10;3.00;;;;;;;;;;5035537;28;20181;-57
2023/12/20 05:44:48;;;;;;;12.90;2.93;;;;;;;;;;5035290;28;20287;-57
2023/12/20 05:47:22;;;;;;;8.07;2.43;;;;;;;;;;5034262;28;20186;-57
2023/12/20 05:49:50;;;;;;;16.07;2.87;;;;;;;;;;5035060;28;20169;-57
2023/12/20 05:52:16;;;;;;;14.33;3.40;;;;;;;;;;5034921;28;20178;-57
2023/12/20 05:54:41;;;;;;;16.20;3.33;;;;;;;;;;5035295;28;20260;-54
2023/12/20 05:57:07;;;;;;;13.37;2.30;;;;;;;;;;5036098;28;20245;-54
2023/12/20 05:59:33;;;;;;;15.97;3.03;;;;;;;;;;5035997;28;20174;-55
2023/12/20 06:01:59;;;;;;;11.80;2.50;;;;;;;;;;5033975;28;20273;-56
2023/12/20 06:04:25;;;;;;;12.60;2.53;;;;;;;;;;5034814;28;20693;-57
2023/12/20 06:06:53;;;;;;;12.67;2.60;;;;;;;;;;5034634;28;20260;-52
2023/12/20 06:09:19;;;;;;;13.73;2.70;;;;;;;;;;5034592;28;20185;-57
2023/12/20 06:11:45;;;;;;;11.83;2.50;;;;;;;;;;5035910;28;20182;-54
2023/12/20 06:14:11;;;;;;;14.10;2.67;;;;;;;;;;5035391;28;20201;-53
2023/12/20 06:16:37;;;;;;;14.67;1.87;;;;;;;;;;5036200;28;20241;-54
2023/12/20 06:19:03;;;;;;;11.03;3.97;;;;;;;;;;5035992;28;20166;-54
2023/12/20 06:21:29;;;;;;;11.63;3.07;;;;;;;;;;5036031;28;20170;-55
2023/12/20 06:23:55;;;;;;;8.60;2.40;;;;;;;;;;5035417;28;20175;-56
2023/12/20 06:26:21;;;;;;;13.47;3.53;;;;;;;;;;5036001;28;20190;-57
2023/12/20 06:28:47;;;;;;;14.60;3.30;;;;;;;;;;5034025;28;20182;-55
2023/12/20 06:31:13;;;;;;;19.87;3.87;;;;;;;;;;5034545;28;20669;-54
2023/12/20 06:33:41;;;;;;;17.63;3.30;;;;;;;;;;5033020;28;20193;-54
2023/12/20 06:36:07;;;;;;;10.70;2.40;;;;;;;;;;5032346;28;20229;-57
2023/12/20 06:38:33;;;;;;;12.07;2.50;;;;;;;;;;5032161;28;20170;-57
2023/12/20 06:40:59;;;;;;;11.00;2.83;;;;;;;;;;5033870;28;20166;-57
2023/12/20 06:43:25;;;;;;;11.17;2.47;;;;;;;;;;5033655;28;20707;-57
2023/12/20 06:45:51;;;;;;;11.87;3.43;;;;;;;;;;5028510;28;20898;-55
2023/12/20 06:48:17;;;;;;;8.03;2.30;;;;;;;;;;5031088;28;20178;-57
2023/12/20 06:50:43;;;;;;;15.50;3.57;;;;;;;;;;5034237;28;20296;-57
2023/12/20 06:53:09;;;;;;;11.63;2.97;;;;;;;;;;5033538;28;20178;-56
2023/12/20 06:55:37;;;;;;;6.70;2.10;;;;;;;;;;5033126;28;20182;-55
2023/12/20 06:58:04;;;;;;;12.70;2.50;;;;;;;;;;5031451;28;20811;-56
2023/12/20 07:00:30;;;;;;;16.17;3.23;;;;;;;;;;5031813;28;20174;-55
2023/12/20 07:02:56;;;;;;;9.20;2.47;;;;;;;;;;5031012;28;20553;-57
2023/12/20 07:05:22;;;;;;;17.57;4.30;;;;;;;;;;5026747;28;20793;-56
2023/12/20 07:07:48;;;;;;;12.53;3.60;;;;;;;;;;5030298;28;20225;-56
2023/12/20 07:10:14;;;;;;;10.50;3.00;;;;;;;;;;5032267;28;20288;-53
2023/12/20 07:12:40;;;;;;;12.33;2.50;;;;;;;;;;5032708;28;20181;-53
2023/12/20 07:15:07;;;;;;;12.27;3.57;;;;;;;;;;5032236;28;20174;-56
2023/12/20 07:17:33;;;;;;;10.80;2.73;;;;;;;;;;5032680;28;20217;-57
2023/12/20 07:20:03;;;;;;;16.60;3.03;;;;;;;;;;5033036;28;20237;-57
2023/12/20 07:22:29;;;;;;;14.17;3.87;;;;;;;;;;5033730;28;20166;-57
2023/12/20 07:24:55;;;;;;;11.93;3.33;;;;;;;;;;5033626;28;20174;-54
2023/12/20 07:27:21;;;;;;;13.03;3.47;;;;;;;;;;5034288;28;20174;-55
2023/12/20 07:29:47;;;;;;;16.40;2.87;;;;;;;;;;5033879;28;20182;-55
2023/12/20 07:32:13;;;;;;;14.17;3.27;;;;;;;;;;5032427;28;20185;-55
2023/12/20 07:34:39;;;;;;;11.83;4.33;;;;;;;;;;5031489;28;20256;-55
2023/12/20 07:37:05;;;;;;;14.70;2.77;;;;;;;;;;5030207;28;20376;-56
2023/12/20 07:39:31;;;;;;;16.20;3.20;;;;;;;;;;5029930;28;20264;-55
2023/12/20 07:41:57;;;;;;;13.07;3.03;;;;;;;;;;5031118;28;20281;-56
2023/12/20 07:44:23;;;;;;;10.30;2.47;;;;;;;;;;5029776;28;20174;-56
2023/12/20 07:46:55;;;;;;;14.40;3.37;;;;;;;;;;5031222;28;20170;-56
2023/12/20 07:49:21;;;;;;;17.57;3.67;;;;;;;;;;5033292;28;20166;-56
2023/12/20 07:51:47;;;;;;;15.00;2.77;;;;;;;;;;5033838;28;20174;-56
2023/12/20 07:54:13;;;;;;;13.53;3.37;;;;;;;;;;5033965;28;20185;-56
2023/12/20 07:56:40;;;;;;;13.40;2.70;;;;;;;;;;5033982;28;20209;-53
2023/12/20 07:59:06;;;;;;;9.57;3.07;;;;;;;;;;5033400;28;20166;-52
2023/12/20 08:01:32;;;;;;;14.80;3.30;;;;;;;;;;5032880;28;20240;-57
2023/12/20 08:03:58;;;;;;;15.60;3.80;;;;;;;;;;5031691;28;20181;-55
2023/12/20 08:06:24;;;;;;;10.87;3.13;;;;;;;;;;5031364;28;20525;-55
2023/12/20 08:08:50;;;;;;;14.67;3.83;;;;;;;;;;5029105;28;20217;-54
2023/12/20 08:11:17;;;;;;;15.83;3.20;;;;;;;;;;5030741;28;20202;-54
2023/12/20 08:13:43;;;;;;;18.97;3.73;;;;;;;;;;5030894;28;20193;-55
2023/12/20 08:16:13;;;;;;;12.67;3.10;;;;;;;;;;5030877;28;20170;-57
2023/12/20 08:18:40;;;;;;;15.70;3.70;;;;;;;;;;5031043;28;20185;-53
2023/12/20 08:21:11;;;;;;;10.17;3.07;;;;;;;;;;5030248;28;20592;-54
2023/12/20 08:23:37;;;;;;;8.13;3.00;;;;;;;;;;5030245;28;20175;-54
2023/12/20 08:26:07;;;;;;;9.83;2.67;;;;;;;;;;5030371;28;20170;-57
2023/12/20 08:28:33;;;;;;;10.07;2.97;;;;;;;;;;5031471;28;20205;-56
2023/12/20 08:30:59;;;;;;;11.83;2.57;;;;;;;;;;5030276;28;20232;-57
2023/12/20 08:33:25;;;;;;;16.70;3.47;;;;;;;;;;5023138;28;20174;-57
2023/12/20 08:35:51;;;;;;;11.83;2.97;;;;;;;;;;5024647;28;20276;-56
2023/12/20 08:38:17;;;;;;;13.17;3.37;;;;;;;;;;5023422;28;20202;-55
2023/12/20 08:40:43;;;;;;;17.40;2.67;;;;;;;;;;5022804;28;20240;-57
2023/12/20 08:43:09;;;;;;;18.47;3.27;;;;;;;;;;5023257;28;20182;-55
2023/12/20 08:45:35;;;;;;;19.93;3.40;;;;;;;;;;5025614;28;20339;-56
2023/12/20 08:48:01;;;;;;;15.90;2.60;;;;;;;;;;5024468;28;20273;-57
2023/12/20 08:50:27;;;;;;;11.00;3.07;;;;;;;;;;5022937;28;20174;-53
2023/12/20 08:52:53;;;;;;;7.90;2.53;;;;;;;;;;5022750;28;20468;-57
2023/12/20 08:55:20;;;;;;;10.03;2.73;;;;;;;;;;5025148;28;20244;-55
2023/12/20 08:57:46;;;;;;;11.27;2.60;;;;;;;;;;5028957;28;20487;-54
2023/12/20 09:00:12;;;;;;;20.83;3.93;;;;;;;;;;5028793;28;20548;-57
2023/12/20 09:02:38;;;;;;;12.10;3.23;;;;;;;;;;5030331;28;20170;-54
2023/12/20 09:05:10;;;;;;;11.87;4.23;;;;;;;;;;5030526;28;20494;-57
2023/12/20 09:07:36;;;;;;;16.80;3.30;;;;;;;;;;5029417;28;20272;-57
2023/12/20 09:10:03;;;;;;;12.37;2.70;;;;;;;;;;5029777;28;20273;-57
2023/12/20 09:12:29;;;;;;;10.07;2.70;;;;;;;;;;5029282;28;20205;-55
2023/12/20 09:14:55;;;;;;;12.17;2.57;;;;;;;;;;5031134;28;20232;-57
2023/12/20 09:17:22;;;;;;;14.03;2.43;;;;;;;;;;5034360;28;20249;-56
2023/12/20 09:19:48;;;;;;;10.23;2.17;;;;;;;;;;5034912;28;20162;-56
2023/12/20 09:22:14;;;;;;;8.47;3.20;;;;;;;;;;5034606;28;20660;-55
2023/12/20 09:24:40;;;;;;;9.13;2.67;;;;;;;;;;5033424;28;20543;-56
2023/12/20 09:27:06;;;;;;;10.83;2.57;;;;;;;;;;5034169;28;20178;-55
2023/12/20 09:29:32;;;;;;;9.97;2.47;;;;;;;;;;5035278;28;20181;-56
2023/12/20 09:31:58;;;;;;;10.27;1.97;;;;;;;;;;5035316;28;20307;-54
2023/12/20 09:34:25;;;;;;;9.50;2.00;;;;;;;;;;5035609;28;20205;-57
2023/12/20 09:36:51;;;;;;;7.43;1.23;;;;;;;;;;5034330;28;20683;-57
2023/12/20 09:39:21;;;;;;;12.80;1.77;;;;;;;;;;5033952;28;20167;-58
2023/12/20 09:42:07;;;;;;;9.37;1.77;;;;;;;;;;5035514;28;20185;-56
2023/12/20 09:44:34;;;;;;;6.30;1.17;;;;;;;;;;5036533;28;20172;-57
2023/12/20 09:47:02;;;;;;;5.73;1.60;;;;;;;;;;5035695;28;20181;-57
2023/12/20 09:49:28;;;;;;;3.13;1.30;;;;;;;;;;5035006;28;20181;-56
2023/12/20 09:51:54;;;;;;;5.57;1.37;;;;;;;;;;5035821;28;20170;-57
2023/12/20 09:54:21;;;;;;;3.30;1.03;;;;;;;;;;5034819;28;20719;-55
2023/12/20 09:56:47;;;;;;;2.60;1.10;;;;;;;;;;5035231;28;20208;-57
2023/12/20 09:59:14;;;;;;;3.30;0.57;;;;;;;;;;5034194;28;20228;-55
2023/12/20 10:01:41;;;;;;;3.30;0.60;;;;;;;;;;5034157;28;20213;-53
2023/12/20 10:04:08;;;;;;;4.63;0.73;;;;;;;;;;5033645;28;20170;-57
2023/12/20 10:06:45;;;;;;;2.27;0.70;;;;;;;;;;5032791;28;20174;-57
2023/12/20 10:09:11;;;;;;;0.60;0.60;;;;;;;;;;5033361;28;20268;-57
2023/12/20 10:11:38;;;;;;;7.30;1.27;;;;;;;;;;5033977;28;20241;-59
2023/12/20 10:14:04;;;;;;;2.53;0.60;;;;;;;;;;5033491;28;20174;-55
2023/12/20 10:16:31;;;;;;;0.90;0.40;;;;;;;;;;5026629;28;20313;-57
2023/12/20 10:18:57;;;;;;;4.90;2.17;;;;;;;;;;5025287;28;20256;-55
2023/12/20 10:21:26;;;;;;;3.73;1.00;;;;;;;;;;5025428;28;20509;-54
2023/12/20 10:23:52;;;;;;;6.73;1.07;;;;;;;;;;5027730;28;20170;-55
2023/12/20 10:26:21;;;;;;;2.80;1.10;;;;;;;;;;5027074;28;20170;-52
2023/12/20 10:28:50;;;;;;;5.17;1.53;;;;;;;;;;5028891;28;20261;-56
2023/12/20 10:31:28;;;;;;;1.00;0.63;;;;;;;;;;5028769;28;20177;-56
2023/12/20 10:33:57;;;;;;;4.87;1.17;;;;;;;;;;5029270;28;20656;-55
2023/12/20 10:36:24;;;;;;;4.83;0.93;;;;;;;;;;5048896;28;20248;-57
2023/12/20 10:38:51;;;;;;;6.80;1.70;;;;;;;;;;5067296;28;20397;-57
2023/12/20 10:41:21;;;;;;;5.17;1.00;;;;;;;;;;5049608;28;20414;-56
2023/12/20 10:43:47;;;;;;;3.10;0.90;;;;;;;;;;5050335;28;20234;-57
2023/12/20 10:46:13;;;;;;;8.03;1.00;;;;;;;;;;5050922;28;20176;-53
2023/12/20 10:48:40;;;;;;;5.97;1.03;;;;;;;;;;5048432;28;20455;-57
2023/12/20 10:51:06;;;;;;;6.10;0.80;;;;;;;;;;5066233;28;20169;-56
2023/12/20 10:53:32;;;;;;;1.83;0.80;;;;;;;;;;5047979;28;20184;-56
2023/12/20 10:56:00;;;;;;;4.17;1.00;;;;;;;;;;5049126;28;20184;-55
2023/12/20 10:58:28;;;;;;;2.77;1.00;;;;;;;;;;5049700;28;20659;-57
2023/12/20 11:01:01;;;;;;;2.00;0.80;;;;;;;;;;5048572;28;20437;-53
2023/12/20 11:03:29;;;;;;;6.20;1.20;;;;;;;;;;5048960;28;20172;-56
2023/12/20 11:06:04;;;;;;;5.87;1.10;;;;;;;;;;5066549;28;20169;-59
2023/12/20 11:08:36;;;;;;;5.80;1.70;;;;;;;;;;5048704;28;20184;-55
2023/12/20 11:11:25;;;;;;;5.57;1.47;;;;;;;;;;5053421;28;20183;-56
2023/12/20 11:13:57;;;;;;;7.70;1.07;;;;;;;;;;5054085;28;20263;-54
2023/12/20 11:16:25;;;;;;;6.63;1.90;;;;;;;;;;5052060;28;20283;-54
2023/12/20 11:18:52;;;;;;;7.73;1.23;;;;;;;;;;5068961;28;20244;-57
2023/12/20 11:21:18;;;;;;;5.43;1.57;;;;;;;;;;5051079;28;20164;-55
2023/12/20 11:23:44;;;;;;;3.97;1.70;;;;;;;;;;5049066;28;20157;-55
2023/12/20 11:26:10;;;;;;;4.97;1.40;;;;;;;;;;5049984;28;20187;-56
2023/12/20 11:28:36;;;;;;;8.67;2.43;;;;;;;;;;5067948;28;20549;-58
2023/12/20 11:31:02;;;;;;;6.70;1.90;;;;;;;;;;5052027;28;20476;-57
2023/12/20 11:33:36;;;;;;;8.97;1.67;;;;;;;;;;5055035;28;20241;-56
2023/12/20 11:36:02;;;;;;;7.77;1.30;;;;;;;;;;5071918;28;20853;-54
2023/12/20 11:38:59;;;;;;;4.47;1.00;;;;;;;;;;5059121;28;20281;-55
2023/12/20 11:41:26;;;;;;;3.13;0.80;;;;;;;;;;5056672;28;20184;-58
2023/12/20 11:43:56;;;;;;;4.77;1.07;;;;;;;;;;5056845;28;20180;-57
2023/12/20 11:46:22;;;;;;;7.60;1.50;;;;;;;;;;5057031;28;20176;-56
2023/12/20 11:48:50;;;;;;;3.93;1.40;;;;;;;;;;5075067;28;20164;-55
2023/12/20 11:51:17;;;;;;;2.00;1.03;;;;;;;;;;5056622;28;20173;-58
2023/12/20 11:53:43;;;;;;;9.33;1.27;;;;;;;;;;5056909;28;20171;-58
2023/12/20 11:56:10;;;;;;;4.97;1.57;;;;;;;;;;5056712;28;20564;-56
2023/12/20 11:58:36;;;;;;;9.23;2.33;;;;;;;;;;5055812;28;20184;-54
2023/12/20 12:01:04;;;;;;;7.07;2.07;;;;;;;;;;5055887;28;20457;-56
2023/12/20 12:03:30;;;;;;;5.53;1.40;;;;;;;;;;5056129;28;20802;-56
2023/12/20 12:05:56;;;;;;;7.70;1.50;;;;;;;;;;5054536;28;20173;-56
2023/12/20 12:08:22;;;;;;;14.57;2.30;;;;;;;;;;5072654;28;20164;-56
2023/12/20 12:10:48;;;;;;;8.53;2.07;;;;;;;;;;5056477;28;20779;-55
2023/12/20 12:13:14;;;;;;;8.80;1.63;;;;;;;;;;5056397;28;20276;-55
2023/12/20 12:15:42;;;;;;;12.77;2.03;;;;;;;;;;5057142;28;20283;-57
2023/12/20 12:18:08;;;;;;;16.77;3.27;;;;;;;;;;5055761;28;20200;-56
2023/12/20 12:20:34;;;;;;;13.43;1.77;;;;;;;;;;5054598;28;20184;-56
2023/12/20 12:23:05;;;;;;;11.77;1.50;;;;;;;;;;5055486;28;20175;-55
2023/12/20 12:25:31;;;;;;;13.07;2.53;;;;;;;;;;5055421;28;20546;-56
2023/12/20 12:28:01;;;;;;;10.23;2.00;;;;;;;;;;5054604;28;20180;-57
2023/12/20 12:30:27;;;;;;;17.27;3.70;;;;;;;;;;5054570;28;20175;-56
2023/12/20 12:32:53;;;;;;;19.00;2.50;;;;;;;;;;5056670;28;20181;-57
2023/12/20 12:35:20;;;;;;;8.20;2.43;;;;;;;;;;5056010;28;20177;-53
2023/12/20 12:37:46;;;;;;;11.93;2.47;;;;;;;;;;5057092;28;20219;-58
2023/12/20 12:40:13;;;;;;;9.03;2.47;;;;;;;;;;5056563;28;20168;-52
2023/12/20 12:42:39;;;;;;;14.80;2.57;;;;;;;;;;5057385;28;20168;-56
2023/12/20 12:45:05;;;;;;;12.40;2.90;;;;;;;;;;5056738;28;20164;-57
2023/12/20 12:47:38;;;;;;;8.00;2.40;;;;;;;;;;5073786;28;20192;-57
2023/12/20 12:50:04;;;;;;;9.47;2.27;;;;;;;;;;5054972;28;20180;-57
2023/12/20 12:52:31;;;;;;;11.17;2.83;;;;;;;;;;5053413;28;20184;-58
2023/12/20 12:54:57;;;;;;;11.73;3.30;;;;;;;;;;5071749;28;20595;-58
2023/12/20 12:57:23;;;;;;;12.23;3.00;;;;;;;;;;5055828;28;20663;-58
2023/12/20 12:59:49;;;;;;;11.03;2.73;;;;;;;;;;5054937;28;20169;-57
2023/12/20 13:02:15;;;;;;;9.60;2.60;;;;;;;;;;5054399;28;20165;-57
2023/12/20 13:04:43;;;;;;;18.90;3.00;;;;;;;;;;5053408;28;20672;-57
2023/12/20 13:07:12;;;;;;;11.97;2.90;;;;;;;;;;5057169;28;20463;-57
2023/12/20 13:09:38;;;;;;;11.13;1.93;;;;;;;;;;5057043;28;20173;-55
2023/12/20 13:12:06;;;;;;;16.53;3.23;;;;;;;;;;5074380;28;20179;-57
2023/12/20 13:14:32;;;;;;;10.97;3.47;;;;;;;;;;5056756;28;20653;-57
2023/12/20 13:16:58;;;;;;;9.63;2.77;;;;;;;;;;5055622;28;20595;-56
2023/12/20 13:19:24;;;;;;;12.00;2.73;;;;;;;;;;5072524;28;20169;-57
2023/12/20 13:21:51;;;;;;;11.87;3.00;;;;;;;;;;5055262;28;20169;-57
2023/12/20 13:24:18;;;;;;;16.77;3.07;;;;;;;;;;5054147;28;20263;-57
2023/12/20 13:26:44;;;;;;;15.30;3.27;;;;;;;;;;5054496;28;20173;-57
2023/12/20 13:29:10;;;;;;;17.90;2.87;;;;;;;;;;5054026;28;20191;-54
2023/12/20 13:31:37;;;;;;;12.10;2.60;;;;;;;;;;5053312;28;20179;-53
2023/12/20 13:34:03;;;;;;;18.83;3.90;;;;;;;;;;5070363;28;20231;-57
2023/12/20 13:36:29;;;;;;;12.73;3.33;;;;;;;;;;5040249;28;20581;-56
2023/12/20 13:38:55;;;;;;;11.00;3.33;;;;;;;;;;5028872;28;20175;-54
2023/12/20 13:41:22;;;;;;;17.73;2.90;;;;;;;;;;5027144;28;20166;-56
2023/12/20 13:43:47;;;;;;;13.20;3.83;;;;;;;;;;5027556;28;20178;-54
2023/12/20 13:46:17;;;;;;;14.23;3.60;;;;;;;;;;5028208;28;20169;-56
2023/12/20 13:48:43;;;;;;;12.23;2.80;;;;;;;;;;5031006;28;20665;-56
2023/12/20 13:51:09;;;;;;;12.03;3.07;;;;;;;;;;5030470;28;20171;-54
2023/12/20 13:53:35;;;;;;;13.03;2.87;;;;;;;;;;5030967;28;20170;-56
2023/12/20 13:56:01;;;;;;;15.00;3.67;;;;;;;;;;5030042;28;20239;-55
2023/12/20 13:58:27;;;;;;;11.70;3.53;;;;;;;;;;5030036;28;20607;-56
2023/12/20 14:00:53;;;;;;;10.83;3.87;;;;;;;;;;5031524;28;20159;-58
2023/12/20 14:03:19;;;;;;;16.60;3.70;;;;;;;;;;5031356;28;20600;-56
2023/12/20 14:05:45;;;;;;;15.73;4.47;;;;;;;;;;5030137;28;20170;-54
2023/12/20 14:08:11;;;;;;;24.43;3.70;;;;;;;;;;5029588;28;20177;-56
2023/12/20 14:10:38;;;;;;;20.07;4.07;;;;;;;;;;5028101;28;20174;-57
2023/12/20 14:13:05;;;;;;;15.67;3.30;;;;;;;;;;5029115;28;20186;-57
2023/12/20 14:15:36;;;;;;;13.77;3.60;;;;;;;;;;5027695;28;20737;-56
2023/12/20 14:18:02;;;;;;;19.03;4.13;;;;;;;;;;5029105;28;20205;-55
2023/12/20 14:20:29;;;;;;;14.57;2.70;;;;;;;;;;5030113;28;20177;-57
2023/12/20 14:22:55;;;;;;;12.17;3.97;;;;;;;;;;5032322;28;20261;-58
2023/12/20 14:25:23;;;;;;;18.93;3.93;;;;;;;;;;5031234;28;20261;-54
2023/12/20 14:27:49;;;;;;;11.83;4.10;;;;;;;;;;5030454;28;20174;-56
2023/12/20 14:30:16;;;;;;;16.37;4.17;;;;;;;;;;5029161;28;20208;-54
2023/12/20 14:32:42;;;;;;;22.83;4.80;;;;;;;;;;5029005;28;20170;-57